createdAt,value
2023-04-23T00:01:28.194Z,99357.81
2023-04-23T00:03:59.505Z,99363.00
2023-04-23T00:06:30.594Z,99360.28
2023-04-23T00:09:01.813Z,99358.44
2023-04-23T00:11:31.197Z,99360.97
2023-04-23T00:14:00.427Z,99360.19
2023-04-23T00:16:29.772Z,99359.94
2023-04-23T00:18:58.596Z,99359.19
2023-04-23T00:21:28.481Z,99362.78
2023-04-23T00:23:58.492Z,99365.00
2023-04-23T00:26:27.444Z,99361.06
2023-04-23T00:28:56.232Z,99352.16
2023-04-23T00:31:27.356Z,99351.66
2023-04-23T00:33:57.219Z,99356.53
2023-04-23T00:36:26.604Z,99353.50
2023-04-23T00:38:56.250Z,99353.00
2023-04-23T00:41:28.558Z,99354.81
2023-04-23T00:43:58.615Z,99353.25
2023-04-23T00:46:27.646Z,99349.59
2023-04-23T00:48:56.651Z,99344.19
2023-04-23T00:51:26.898Z,99345.84
2023-04-23T00:53:56.567Z,99345.75
2023-04-23T00:56:26.215Z,99343.84
2023-04-23T00:58:56.249Z,99338.13
2023-04-23T01:01:26.631Z,99338.47
2023-04-23T01:03:56.891Z,99343.56
2023-04-23T01:06:25.814Z,99342.03
2023-04-23T01:08:54.577Z,99339.09
2023-04-23T01:11:24.614Z,99350.50
2023-04-23T01:13:56.411Z,99353.78
2023-04-23T01:16:25.940Z,99359.50
2023-04-23T01:18:57.009Z,99352.59
2023-04-23T01:21:27.075Z,99353.69
2023-04-23T01:23:56.308Z,99353.97
2023-04-23T01:26:25.510Z,99357.13
2023-04-23T01:28:55.062Z,99357.00
2023-04-23T01:31:24.994Z,99344.66
2023-04-23T01:33:57.806Z,99359.06
2023-04-23T01:36:27.336Z,99349.72
2023-04-23T01:38:56.237Z,99341.53
2023-04-23T01:41:26.222Z,99344.88
2023-04-23T01:43:55.949Z,99350.91
2023-04-23T01:46:24.926Z,99336.75
2023-04-23T01:48:53.891Z,99340.94
2023-04-23T01:51:25.898Z,99331.50
2023-04-23T01:53:54.722Z,99332.19
2023-04-23T01:56:28.577Z,99338.44
2023-04-23T01:58:57.837Z,99338.38
2023-04-23T02:01:26.820Z,99338.88
2023-04-23T02:03:56.627Z,99341.22
2023-04-23T02:06:25.348Z,99340.84
2023-04-23T02:08:54.138Z,99346.53
2023-04-23T02:11:23.706Z,99337.03
2023-04-23T02:13:52.523Z,99333.03
2023-04-23T02:16:21.369Z,99339.09
2023-04-23T02:18:50.254Z,99327.22
2023-04-23T02:21:19.028Z,99333.94
2023-04-23T02:23:47.805Z,99332.19
2023-04-23T02:26:16.884Z,99329.06
2023-04-23T02:28:47.297Z,99332.13
2023-04-23T02:31:16.783Z,99332.00
2023-04-23T02:33:47.194Z,99331.19
2023-04-23T02:36:16.459Z,99327.53
2023-04-23T02:38:47.824Z,99322.91
2023-04-23T02:41:17.500Z,99323.50
2023-04-23T02:43:47.113Z,99328.31
2023-04-23T02:46:15.999Z,99325.72
2023-04-23T02:48:44.822Z,99326.75
2023-04-23T02:51:15.090Z,99322.13
2023-04-23T02:53:43.815Z,99322.19
2023-04-23T02:56:12.589Z,99326.16
2023-04-23T02:58:42.298Z,99322.97
2023-04-23T03:01:12.091Z,99325.72
2023-04-23T03:03:41.490Z,99319.75
2023-04-23T03:06:11.276Z,99317.34
2023-04-23T03:08:41.113Z,99312.34
2023-04-23T03:11:09.875Z,99312.31
2023-04-23T03:13:38.917Z,99316.13
2023-04-23T03:16:08.245Z,99309.91
2023-04-23T03:18:37.051Z,99314.63
2023-04-23T03:21:06.200Z,99313.75
2023-04-23T03:23:37.095Z,99313.38
2023-04-23T03:26:06.713Z,99311.66
2023-04-23T03:28:35.601Z,99307.75
2023-04-23T03:31:04.522Z,99320.44
2023-04-23T03:33:34.112Z,99316.19
2023-04-23T03:36:03.730Z,99319.16
2023-04-23T03:38:32.596Z,99322.03
2023-04-23T03:41:01.375Z,99311.84
2023-04-23T03:43:30.246Z,99312.47
2023-04-23T03:45:59.048Z,99314.34
2023-04-23T03:48:27.229Z,99322.94
2023-04-23T03:50:56.065Z,99317.03
2023-04-23T03:53:23.955Z,99323.22
2023-04-23T03:55:53.529Z,99325.09
2023-04-23T03:58:22.275Z,99325.41
2023-04-23T04:00:50.097Z,99319.00
2023-04-23T04:03:19.803Z,99329.34
2023-04-23T04:05:49.531Z,99325.47
2023-04-23T04:08:19.118Z,99332.94
2023-04-23T04:10:47.951Z,99327.84
2023-04-23T04:13:17.503Z,99328.16
2023-04-23T04:15:47.085Z,99329.34
2023-04-23T04:18:16.473Z,99334.03
2023-04-23T04:20:46.116Z,99333.72
2023-04-23T04:23:14.936Z,99331.91
2023-04-23T04:25:43.738Z,99333.63
2023-04-23T04:28:13.342Z,99338.75
2023-04-23T04:30:42.873Z,99338.22
2023-04-23T04:33:11.799Z,99343.28
2023-04-23T04:35:42.094Z,99349.00
2023-04-23T04:38:10.811Z,99350.38
2023-04-23T04:40:41.091Z,99361.94
2023-04-23T04:43:10.730Z,99367.38
2023-04-23T04:45:40.232Z,99367.91
2023-04-23T04:48:09.735Z,99367.47
2023-04-23T04:50:38.457Z,99371.13
2023-04-23T04:53:07.178Z,99361.81
2023-04-23T04:55:36.731Z,99367.63
2023-04-23T04:58:05.498Z,99368.88
2023-04-23T05:00:34.653Z,99365.59
2023-04-23T05:03:04.076Z,99363.09
2023-04-23T05:05:34.070Z,99365.84
2023-04-23T05:08:03.633Z,99365.66
2023-04-23T05:10:32.416Z,99368.56
2023-04-23T05:13:02.000Z,99373.50
2023-04-23T05:15:30.901Z,99374.31
2023-04-23T05:17:59.601Z,99377.66
2023-04-23T05:20:29.219Z,99378.00
2023-04-23T05:22:59.752Z,99369.66
2023-04-23T05:25:32.250Z,99377.28
2023-04-23T05:28:01.904Z,99368.75
2023-04-23T05:30:31.157Z,99366.97
2023-04-23T05:33:00.788Z,99366.00
2023-04-23T05:35:29.592Z,99371.69
2023-04-23T05:37:58.385Z,99372.41
2023-04-23T05:40:27.993Z,99378.97
2023-04-23T05:42:59.518Z,99385.78
2023-04-23T05:45:29.272Z,99388.75
2023-04-23T05:47:58.049Z,99389.25
2023-04-23T05:50:26.842Z,99387.75
2023-04-23T05:52:55.661Z,99384.44
2023-04-23T05:55:24.441Z,99384.97
2023-04-23T05:57:54.371Z,99382.88
2023-04-23T06:00:23.208Z,99382.84
2023-04-23T06:02:52.203Z,99388.16
2023-04-23T06:05:22.092Z,99395.81
2023-04-23T06:07:50.941Z,99397.88
2023-04-23T06:10:19.648Z,99398.06
2023-04-23T06:12:49.496Z,99393.41
2023-04-23T06:15:18.160Z,99398.28
2023-04-23T06:17:47.705Z,99386.72
2023-04-23T06:20:16.411Z,99391.22
2023-04-23T06:22:45.509Z,99385.22
2023-04-23T06:25:14.308Z,99386.59
2023-04-23T06:27:43.022Z,99402.72
2023-04-23T06:30:12.518Z,99404.66
2023-04-23T06:32:41.281Z,99405.88
2023-04-23T06:35:10.440Z,99413.56
2023-04-23T06:37:39.137Z,99404.94
2023-04-23T06:40:08.551Z,99415.03
2023-04-23T06:42:37.276Z,99412.97
2023-04-23T06:45:07.194Z,99423.41
2023-04-23T06:47:36.760Z,99425.97
2023-04-23T06:50:06.867Z,99429.72
2023-04-23T06:52:36.298Z,99438.03
2023-04-23T06:55:05.817Z,99426.88
2023-04-23T06:57:34.940Z,99425.06
2023-04-23T07:00:05.986Z,99423.69
2023-04-23T07:02:35.033Z,99425.78
2023-04-23T07:05:04.387Z,99435.09
2023-04-23T07:07:33.142Z,99431.16
2023-04-23T07:10:01.747Z,99425.63
2023-04-23T07:12:30.667Z,99440.63
2023-04-23T07:14:59.331Z,99434.72
2023-04-23T07:17:28.090Z,99429.44
2023-04-23T07:19:56.918Z,99438.34
2023-04-23T07:22:28.817Z,99443.47
2023-04-23T07:24:59.186Z,99438.59
2023-04-23T07:27:27.834Z,99442.84
2023-04-23T07:29:56.513Z,99430.47
2023-04-23T07:32:28.404Z,99410.88
2023-04-23T07:34:57.590Z,99418.53
2023-04-23T07:37:26.598Z,99413.25
2023-04-23T07:39:55.409Z,99411.91
2023-04-23T07:42:24.119Z,99418.75
2023-04-23T07:44:52.758Z,99417.19
2023-04-23T07:47:21.639Z,99404.91
2023-04-23T07:49:50.537Z,99412.91
2023-04-23T07:52:18.708Z,99410.88
2023-04-23T07:54:47.461Z,99409.19
2023-04-23T07:57:16.546Z,99408.16
2023-04-23T07:59:45.183Z,99405.38
2023-04-23T08:02:13.846Z,99405.50
2023-04-23T08:04:42.759Z,99396.53
2023-04-23T08:07:11.961Z,99401.97
2023-04-23T08:09:42.887Z,99401.78
2023-04-23T08:12:11.688Z,99407.34
2023-04-23T08:14:40.295Z,99406.13
2023-04-23T08:17:08.916Z,99403.41
2023-04-23T08:19:37.577Z,99406.13
2023-04-23T08:22:06.188Z,99409.88
2023-04-23T08:24:34.820Z,99403.88
2023-04-23T08:27:03.747Z,99403.31
2023-04-23T08:29:32.471Z,99406.81
2023-04-23T08:32:04.285Z,99400.47
2023-04-23T08:34:35.163Z,99401.81
2023-04-23T08:37:05.129Z,99404.31
2023-04-23T08:39:35.621Z,99402.91
2023-04-23T08:42:23.561Z,99399.34
2023-04-23T08:44:53.537Z,99405.16
2023-04-23T08:47:25.938Z,99402.03
2023-04-23T08:49:56.314Z,99402.06
2023-04-23T08:52:28.772Z,99390.84
2023-04-23T08:55:02.530Z,99397.88
2023-04-23T08:57:32.165Z,99389.31
2023-04-23T09:00:08.203Z,99393.19
2023-04-23T09:02:45.182Z,99401.34
2023-04-23T09:05:15.577Z,99396.81
2023-04-23T09:07:45.004Z,99392.16
2023-04-23T09:10:18.439Z,99385.19
2023-04-23T09:12:48.383Z,99381.03
2023-04-23T09:15:18.200Z,99380.66
2023-04-23T09:17:50.041Z,99382.72
2023-04-23T09:20:18.801Z,99382.00
2023-04-23T09:22:50.048Z,99382.16
2023-04-23T09:25:22.216Z,99369.47
2023-04-23T09:27:53.242Z,99378.28
2023-04-23T09:30:22.112Z,99373.09
2023-04-23T09:32:51.090Z,99380.44
2023-04-23T09:35:21.075Z,99366.28
2023-04-23T09:37:53.502Z,99372.56
2023-04-23T09:40:25.335Z,99371.34
2023-04-23T09:42:55.088Z,99362.00
2023-04-23T09:45:26.051Z,99367.09
2023-04-23T09:47:58.279Z,99367.00
2023-04-23T09:50:38.516Z,99365.16
2023-04-23T09:53:09.767Z,99375.13
2023-04-23T09:55:43.001Z,99373.53
2023-04-23T09:58:16.407Z,99359.72
2023-04-23T10:00:45.114Z,99361.16
2023-04-23T10:03:13.853Z,99368.78
2023-04-23T10:08:17.702Z,99356.19
2023-04-23T10:10:57.461Z,99347.25
2023-04-23T10:13:29.356Z,99345.91
2023-04-23T10:16:07.067Z,99345.72
2023-04-23T10:18:38.048Z,99342.78
2023-04-23T10:21:07.452Z,99341.97
2023-04-23T10:23:37.348Z,99341.22
2023-04-23T10:26:07.341Z,99337.75
2023-04-23T10:28:37.166Z,99335.53
2023-04-23T10:31:07.307Z,99337.91
2023-04-23T10:33:45.720Z,99341.03
2023-04-23T10:36:26.102Z,99337.56
2023-04-23T10:38:59.037Z,99327.75
2023-04-23T10:41:39.967Z,99332.06
2023-04-23T10:44:16.122Z,99324.03
2023-04-23T10:47:00.963Z,99318.47
2023-04-23T10:49:34.672Z,99315.84
2023-04-23T10:52:19.356Z,99312.97
2023-04-23T10:55:02.356Z,99314.59
2023-04-23T10:57:31.001Z,99311.06
2023-04-23T11:00:04.805Z,99318.00
2023-04-23T11:02:45.354Z,99312.25
2023-04-23T11:05:15.670Z,99314.00
2023-04-23T11:08:18.223Z,99308.03
2023-04-23T11:11:00.632Z,99313.78
2023-04-23T11:13:30.980Z,99300.88
2023-04-23T11:16:23.502Z,99298.91
2023-04-23T11:19:11.474Z,99303.03
2023-04-23T11:22:20.712Z,99305.03
2023-04-23T11:24:50.952Z,99299.31
2023-04-23T11:27:20.617Z,99295.41
2023-04-23T11:29:49.225Z,99293.63
2023-04-23T11:32:18.834Z,99303.00
2023-04-23T11:34:50.626Z,99293.97
2023-04-23T11:37:20.057Z,99295.53
2023-04-23T11:39:49.552Z,99293.00
2023-04-23T11:42:22.182Z,99292.75
2023-04-23T11:44:50.973Z,99296.31
2023-04-23T11:47:19.933Z,99295.88
2023-04-23T11:49:49.944Z,99287.84
2023-04-23T11:52:18.552Z,99281.63
2023-04-23T11:54:47.134Z,99280.88
2023-04-23T11:57:15.614Z,99287.47
2023-04-23T11:59:44.390Z,99283.03
2023-04-23T12:02:13.482Z,99273.59
2023-04-23T12:04:43.995Z,99275.63
2023-04-23T12:07:25.346Z,99262.59
2023-04-23T12:10:00.736Z,99262.97
2023-04-23T12:12:38.300Z,99259.91
2023-04-23T12:15:08.928Z,99260.03
2023-04-23T12:17:37.595Z,99256.00
2023-04-23T12:20:13.029Z,99254.06
2023-04-23T12:22:41.705Z,99253.09
2023-04-23T12:25:10.492Z,99251.66
2023-04-23T12:27:45.530Z,99251.47
2023-04-23T12:30:14.869Z,99242.00
2023-04-23T12:32:44.753Z,99237.16
2023-04-23T12:35:14.232Z,99237.22
2023-04-23T12:37:42.774Z,99230.72
2023-04-23T12:40:12.111Z,99238.88
2023-04-23T12:42:40.825Z,99228.97
2023-04-23T12:45:10.953Z,99229.13
2023-04-23T12:47:40.559Z,99228.66
2023-04-23T12:50:10.061Z,99222.47
2023-04-23T12:52:38.840Z,99225.38
2023-04-23T12:55:07.902Z,99220.72
2023-04-23T12:57:36.502Z,99219.00
2023-04-23T13:00:06.270Z,99229.63
2023-04-23T13:02:35.058Z,99217.41
2023-04-23T13:05:03.762Z,99216.88
2023-04-23T13:07:32.500Z,99210.75
2023-04-23T13:10:01.167Z,99209.56
2023-04-23T13:12:29.784Z,99201.94
2023-04-23T13:14:59.858Z,99194.38
2023-04-23T13:17:28.915Z,99204.66
2023-04-23T13:19:57.808Z,99203.75
2023-04-23T13:22:29.238Z,99188.72
2023-04-23T13:24:58.621Z,99197.88
2023-04-23T13:27:30.042Z,99196.34
2023-04-23T13:29:59.065Z,99189.75
2023-04-23T13:32:32.254Z,99186.53
2023-04-23T13:35:03.193Z,99172.16
2023-04-23T13:37:32.604Z,99182.13
2023-04-23T13:40:01.510Z,99172.84
2023-04-23T13:42:29.989Z,99168.56
2023-04-23T13:44:58.616Z,99167.53
2023-04-23T13:47:31.856Z,99159.66
2023-04-23T13:50:06.979Z,99163.09
2023-04-23T13:52:37.478Z,99165.38
2023-04-23T13:55:07.877Z,99149.00
2023-04-23T13:57:36.777Z,99154.50
2023-04-23T14:00:07.164Z,99156.31
2023-04-23T14:02:36.173Z,99148.38
2023-04-23T14:05:06.779Z,99150.34
2023-04-23T14:07:36.143Z,99144.38
2023-04-23T14:10:05.282Z,99145.41
2023-04-23T14:12:33.990Z,99143.47
2023-04-23T14:15:02.514Z,99153.88
2023-04-23T14:17:31.109Z,99136.47
2023-04-23T14:19:59.700Z,99137.38
2023-04-23T14:22:28.539Z,99135.72
2023-04-23T14:25:10.722Z,99127.75
2023-04-23T14:27:46.528Z,99127.59
2023-04-23T14:30:21.715Z,99131.78
2023-04-23T14:32:50.680Z,99118.84
2023-04-23T14:35:26.763Z,99121.94
2023-04-23T14:38:04.347Z,99119.13
2023-04-23T14:40:32.982Z,99125.06
2023-04-23T14:43:14.494Z,99121.75
2023-04-23T14:45:44.025Z,99117.72
2023-04-23T14:48:12.532Z,99119.72
2023-04-23T14:50:41.228Z,99112.94
2023-04-23T14:53:10.931Z,99118.22
2023-04-23T14:55:42.975Z,99111.13
2023-04-23T14:58:11.683Z,99107.25
2023-04-23T15:00:40.482Z,99108.50
2023-04-23T15:03:11.224Z,99112.41
2023-04-23T15:05:40.705Z,99118.31
2023-04-23T15:08:09.490Z,99113.34
2023-04-23T15:10:38.104Z,99104.53
2023-04-23T15:13:39.879Z,99100.16
2023-04-23T15:16:47.660Z,99097.81
2023-04-23T15:19:18.569Z,99101.25
2023-04-23T15:21:48.644Z,99096.69
2023-04-23T15:24:18.022Z,99094.69
2023-04-23T15:26:46.517Z,99098.22
2023-04-23T15:29:15.182Z,99096.56
2023-04-23T15:31:43.762Z,99098.03
2023-04-23T15:34:12.497Z,99092.44
2023-04-23T15:36:41.209Z,99094.28
2023-04-23T15:39:10.001Z,99092.31
2023-04-23T15:41:40.958Z,99093.84
2023-04-23T15:44:11.928Z,99089.06
2023-04-23T15:46:41.045Z,99084.38
2023-04-23T15:49:09.955Z,99084.72
2023-04-23T15:51:38.830Z,99087.25
2023-04-23T15:54:08.845Z,99077.25
2023-04-23T15:56:38.164Z,99076.34
2023-04-23T15:59:07.944Z,99073.22
2023-04-23T16:01:36.611Z,99077.84
2023-04-23T16:04:10.781Z,99074.31
2023-04-23T16:06:42.169Z,99077.38
2023-04-23T16:09:10.790Z,99066.28
2023-04-23T16:11:39.640Z,99067.41
2023-04-23T16:14:09.786Z,99063.41
2023-04-23T16:16:39.048Z,99059.44
2023-04-23T16:19:07.967Z,99062.22
2023-04-23T16:21:36.698Z,99061.66
2023-04-23T16:24:07.891Z,99058.72
2023-04-23T16:26:37.632Z,99054.47
2023-04-23T16:29:21.456Z,99054.13
2023-04-23T16:31:51.399Z,99055.72
2023-04-23T16:34:20.083Z,99052.78
2023-04-23T16:36:48.900Z,99049.72
2023-04-23T16:39:17.558Z,99044.16
2023-04-23T16:41:47.358Z,99044.03
2023-04-23T16:45:15.543Z,99045.91
2023-04-23T16:47:44.590Z,99042.34
2023-04-23T16:50:14.151Z,99041.00
2023-04-23T16:52:42.987Z,99037.94
2023-04-23T16:55:12.513Z,99040.34
2023-04-23T16:57:41.335Z,99034.56
2023-04-23T17:00:12.103Z,99037.59
2023-04-23T17:02:42.228Z,99025.88
2023-04-23T17:05:11.873Z,99030.97
2023-04-23T17:07:44.049Z,99033.84
2023-04-23T17:10:12.839Z,99035.53
2023-04-23T17:12:41.447Z,99032.78
2023-04-23T17:15:10.985Z,99025.38
2023-04-23T17:17:39.713Z,99030.09
2023-04-23T17:20:09.244Z,99031.56
2023-04-23T17:22:37.939Z,99023.75
2023-04-23T17:25:07.529Z,99023.31
2023-04-23T17:27:36.227Z,99021.50
2023-04-23T17:30:05.936Z,99019.28
2023-04-23T17:32:34.826Z,99016.09
2023-04-23T17:35:10.128Z,99018.09
2023-04-23T17:37:40.430Z,99022.44
2023-04-23T17:40:11.063Z,99022.75
2023-04-23T17:42:39.809Z,99022.44
2023-04-23T17:45:10.326Z,99016.06
2023-04-23T17:47:41.020Z,99024.16
2023-04-23T17:50:13.140Z,99024.84
2023-04-23T17:52:45.244Z,99027.78
2023-04-23T17:55:23.505Z,99025.44
2023-04-23T17:57:51.956Z,99027.03
2023-04-23T18:00:22.713Z,99025.19
2023-04-23T18:02:50.693Z,99024.78
2023-04-23T18:05:20.409Z,99029.84
2023-04-23T18:07:49.071Z,99028.34
2023-04-23T18:10:17.776Z,99027.44
2023-04-23T18:12:46.703Z,99027.19
2023-04-23T18:15:16.316Z,99027.66
2023-04-23T18:17:46.701Z,99029.03
2023-04-23T18:20:16.583Z,99028.00
2023-04-23T18:22:46.121Z,99031.72
2023-04-23T18:25:14.896Z,99037.84
2023-04-23T18:27:44.395Z,99027.84
2023-04-23T18:30:15.644Z,99030.44
2023-04-23T18:32:55.434Z,99039.69
2023-04-23T18:35:25.678Z,99036.22
2023-04-23T18:38:06.986Z,99040.09
2023-04-23T18:40:35.807Z,99043.16
2023-04-23T18:43:05.323Z,99043.84
2023-04-23T18:45:34.081Z,99041.22
2023-04-23T18:48:35.709Z,99045.88
2023-04-23T18:51:29.139Z,99047.63
2023-04-23T18:53:59.253Z,99045.69
2023-04-23T18:56:28.172Z,99052.06
2023-04-23T18:58:57.828Z,99048.78
2023-04-23T19:01:28.609Z,99055.41
2023-04-23T19:03:57.891Z,99046.50
2023-04-23T19:06:28.316Z,99051.31
2023-04-23T19:08:58.182Z,99047.16
2023-04-23T19:11:30.280Z,99054.75
2023-04-23T19:13:59.095Z,99050.31
2023-04-23T19:18:59.481Z,99044.91
2023-04-23T19:21:29.232Z,99040.50
2023-04-23T19:23:58.826Z,99040.66
2023-04-23T19:26:28.385Z,99040.59
2023-04-23T19:28:57.940Z,99033.97
2023-04-23T19:31:29.306Z,99039.50
2023-04-23T19:33:58.354Z,99030.41
2023-04-23T19:36:27.973Z,99040.09
2023-04-23T19:38:57.291Z,99044.31
2023-04-23T19:41:26.427Z,99041.72
2023-04-23T19:43:56.110Z,99037.81
2023-04-23T19:46:25.779Z,99042.69
2023-04-23T19:48:55.769Z,99037.59
2023-04-23T19:51:32.692Z,99042.41
2023-04-23T19:54:02.548Z,99037.25
2023-04-23T19:56:32.411Z,99042.63
2023-04-23T19:59:01.249Z,99037.38
2023-04-23T20:01:31.481Z,99038.13
2023-04-23T20:04:01.362Z,99025.13
2023-04-23T20:06:30.274Z,99030.75
2023-04-23T20:09:26.783Z,99023.81
2023-04-23T20:11:55.587Z,99015.47
2023-04-23T20:14:26.005Z,99021.34
2023-04-23T20:16:54.815Z,99026.56
2023-04-23T20:19:26.347Z,99023.19
2023-04-23T20:21:56.148Z,99029.06
2023-04-23T20:24:24.971Z,99021.69
2023-04-23T20:26:54.827Z,99025.88
2023-04-23T20:29:23.642Z,99019.81
2023-04-23T20:31:53.359Z,99023.72
2023-04-23T20:34:22.152Z,99022.09
2023-04-23T20:36:51.806Z,99021.03
2023-04-23T20:39:24.472Z,99015.91
2023-04-23T20:41:55.128Z,99025.53
2023-04-23T20:44:25.556Z,99022.53
2023-04-23T20:46:56.689Z,99019.22
2023-04-23T20:49:26.303Z,99016.88
2023-04-23T20:51:55.904Z,99010.78
2023-04-23T20:54:25.823Z,99011.50
2023-04-23T20:56:54.673Z,99002.69
2023-04-23T20:59:23.528Z,99007.16
2023-04-23T21:01:52.368Z,99005.56
2023-04-23T21:04:22.286Z,99006.13
2023-04-23T21:06:53.355Z,99000.75
2023-04-23T21:09:23.163Z,99003.09
2023-04-23T21:11:52.714Z,99002.75
2023-04-23T21:14:21.593Z,99007.41
2023-04-23T21:16:50.320Z,99009.47
2023-04-23T21:19:19.861Z,99006.22
2023-04-23T21:21:48.617Z,98997.25
2023-04-23T21:24:18.201Z,98994.66
2023-04-23T21:26:47.408Z,98989.97
2023-04-23T21:29:17.089Z,98992.75
2023-04-23T21:31:52.597Z,98992.56
2023-04-23T21:34:21.656Z,98990.72
2023-04-23T21:36:51.352Z,98989.97
2023-04-23T21:39:21.418Z,98980.97
2023-04-23T21:41:50.995Z,98981.63
2023-04-23T21:44:21.644Z,98975.16
2023-04-23T21:46:51.642Z,98968.44
2023-04-23T21:49:21.895Z,98974.44
2023-04-23T21:51:54.749Z,98967.97
2023-04-23T21:54:23.470Z,98967.34
2023-04-23T21:56:53.091Z,98966.59
2023-04-23T21:59:24.619Z,98960.59
2023-04-23T22:01:54.199Z,98963.38
2023-04-23T22:04:27.907Z,98957.53
2023-04-23T22:07:05.687Z,98958.00
2023-04-23T22:09:35.263Z,98958.84
2023-04-23T22:12:04.234Z,98947.72
2023-04-23T22:14:33.974Z,98948.28
2023-04-23T22:17:03.969Z,98943.44
2023-04-23T22:19:33.644Z,98940.44
2023-04-23T22:22:02.393Z,98942.13
2023-04-23T22:24:31.968Z,98939.25
2023-04-23T22:27:00.773Z,98942.56
2023-04-23T22:29:30.367Z,98942.38
2023-04-23T22:31:59.119Z,98938.81
2023-04-23T22:34:26.988Z,98934.19
2023-04-23T22:36:55.901Z,98936.25
2023-04-23T22:39:25.536Z,98932.72
2023-04-23T22:41:54.192Z,98932.25
2023-04-23T22:44:22.933Z,98933.56
2023-04-23T22:46:52.477Z,98930.34
2023-04-23T22:49:21.139Z,98922.63
2023-04-23T22:51:50.242Z,98917.69
2023-04-23T22:54:19.311Z,98924.66
2023-04-23T22:56:48.205Z,98915.88
2023-04-23T22:59:17.742Z,98909.78
2023-04-23T23:01:47.259Z,98904.59
2023-04-23T23:04:17.147Z,98896.88
2023-04-23T23:06:46.583Z,98885.72
2023-04-23T23:09:15.417Z,98882.19
2023-04-23T23:11:44.461Z,98884.97
2023-04-23T23:14:14.514Z,98891.53
2023-04-23T23:16:43.230Z,98887.16
2023-04-23T23:19:12.852Z,98884.00
2023-04-23T23:21:42.511Z,98878.22
2023-04-23T23:24:11.446Z,98868.72
2023-04-23T23:26:41.337Z,98864.94
2023-04-23T23:29:10.091Z,98867.41
2023-04-23T23:31:39.791Z,98878.22
2023-04-23T23:34:09.053Z,98872.66
2023-04-23T23:36:37.851Z,98870.97
2023-04-23T23:39:07.934Z,98867.97
2023-04-23T23:41:37.445Z,98871.81
2023-04-23T23:44:06.975Z,98871.53
2023-04-23T23:46:36.700Z,98876.09
2023-04-23T23:49:06.086Z,98874.16
2023-04-23T23:51:35.713Z,98869.91
2023-04-23T23:54:04.562Z,98877.16
2023-04-23T23:56:34.138Z,98876.00
2023-04-23T23:59:02.904Z,98874.28
